createdAt,value
2023-03-16T00:00:28.361Z,39.83
2023-03-16T00:05:31.108Z,38.63
2023-03-16T00:10:33.870Z,42.20
2023-03-16T00:15:36.563Z,40.33
2023-03-16T00:20:39.202Z,34.87
2023-03-16T00:25:42.826Z,39.50
2023-03-16T00:30:47.829Z,31.30
2023-03-16T00:35:51.588Z,31.03
2023-03-16T00:40:54.165Z,33.85
2023-03-16T00:46:06.924Z,33.27
2023-03-16T00:51:13.209Z,33.65
2023-03-16T00:56:16.803Z,26.48
2023-03-16T01:01:21.078Z,30.70
2023-03-16T01:06:24.050Z,28.23
2023-03-16T01:11:26.734Z,34.90
2023-03-16T01:16:29.990Z,24.35
2023-03-16T01:21:34.231Z,28.63
2023-03-16T01:26:37.222Z,31.67
2023-03-16T01:31:40.203Z,41.67
2023-03-16T01:36:46.684Z,36.97
2023-03-16T01:41:49.892Z,40.90
2023-03-16T01:46:52.767Z,28.10
2023-03-16T01:52:07.901Z,33.97
2023-03-16T01:57:32.897Z,33.13
2023-03-16T02:02:36.044Z,40.37
2023-03-16T02:07:45.452Z,30.38
2023-03-16T02:12:48.333Z,33.03
2023-03-16T02:17:51.866Z,39.00
2023-03-16T02:22:56.670Z,26.05
2023-03-16T02:28:21.556Z,33.73
2023-03-16T02:33:25.612Z,27.38
2023-03-16T02:38:28.452Z,29.33
2023-03-16T02:43:35.214Z,32.73
2023-03-16T02:49:12.597Z,26.80
2023-03-16T02:54:15.460Z,29.20
2023-03-16T02:59:18.581Z,21.25
2023-03-16T03:04:23.865Z,38.05
2023-03-16T03:09:26.493Z,28.00
2023-03-16T03:14:30.076Z,25.42
2023-03-16T03:19:34.385Z,28.37
2023-03-16T03:24:37.179Z,25.40
2023-03-16T03:29:40.007Z,16.73
2023-03-16T03:34:42.818Z,21.93
2023-03-16T03:39:45.885Z,21.98
2023-03-16T03:44:49.204Z,24.90
2023-03-16T03:49:52.344Z,26.20
2023-03-16T03:54:55.034Z,23.60
2023-03-16T03:59:57.854Z,28.37
2023-03-16T04:05:00.583Z,29.75
2023-03-16T04:10:07.044Z,23.77
2023-03-16T04:15:14.032Z,24.42
2023-03-16T04:20:27.255Z,25.40
2023-03-16T04:25:30.824Z,22.27
2023-03-16T04:30:35.573Z,24.95
2023-03-16T04:35:50.141Z,16.67
2023-03-16T04:40:53.614Z,21.50
2023-03-16T04:45:59.840Z,23.92
2023-03-16T04:51:06.095Z,16.37
2023-03-16T04:56:18.782Z,22.77
2023-03-16T05:01:25.384Z,19.07
2023-03-16T05:06:32.287Z,14.77
2023-03-16T05:11:38.226Z,25.65
2023-03-16T05:16:44.205Z,21.33
2023-03-16T05:21:47.001Z,25.60
2023-03-16T05:26:49.983Z,27.87
2023-03-16T05:31:54.779Z,21.85
2023-03-16T05:36:59.934Z,22.02
2023-03-16T05:42:02.637Z,26.43
2023-03-16T05:47:17.114Z,16.63
2023-03-16T05:52:25.687Z,23.77
2023-03-16T05:57:30.150Z,14.43
2023-03-16T06:02:34.694Z,17.92
2023-03-16T06:07:37.621Z,17.80
2023-03-16T06:12:41.580Z,31.30
2023-03-16T06:17:44.928Z,21.20
2023-03-16T06:22:47.705Z,20.20
2023-03-16T06:27:50.558Z,24.77
2023-03-16T06:32:53.963Z,18.87
2023-03-16T06:37:56.863Z,23.20
2023-03-16T06:43:12.221Z,20.00
2023-03-16T06:48:15.090Z,30.52
2023-03-16T06:53:19.218Z,23.65
2023-03-16T06:58:22.421Z,27.33
2023-03-16T07:03:25.587Z,26.20
2023-03-16T07:08:34.747Z,13.33
2023-03-16T07:13:38.027Z,30.65
2023-03-16T07:18:44.575Z,16.67
2023-03-16T07:23:50.708Z,13.80
2023-03-16T07:28:59.077Z,30.95
2023-03-16T07:34:02.887Z,32.03
2023-03-16T07:39:14.728Z,30.75
2023-03-16T07:44:18.570Z,28.08
2023-03-16T07:49:24.449Z,24.50
2023-03-16T07:54:29.405Z,26.92
2023-03-16T07:59:32.439Z,24.50
2023-03-16T08:04:36.939Z,19.77
2023-03-16T08:09:41.609Z,26.02
2023-03-16T08:14:46.804Z,28.13
2023-03-16T08:19:57.642Z,25.63
2023-03-16T08:25:00.961Z,24.37
2023-03-16T08:30:11.584Z,18.88
2023-03-16T08:35:18.123Z,22.90
2023-03-16T08:40:22.960Z,23.73
2023-03-16T08:45:26.832Z,21.63
2023-03-16T08:50:30.343Z,23.13
2023-03-16T08:55:33.617Z,10.80
2023-03-16T09:00:36.732Z,24.95
2023-03-16T09:05:39.627Z,26.60
2023-03-16T09:10:42.685Z,23.67
2023-03-16T09:15:45.840Z,20.90
2023-03-16T09:20:48.609Z,17.85
2023-03-16T09:25:51.363Z,18.23
2023-03-16T09:30:57.819Z,17.63
2023-03-16T09:36:00.951Z,15.95
2023-03-16T09:41:09.268Z,14.80
2023-03-16T09:46:30.884Z,14.80
2023-03-16T09:51:45.034Z,16.92
2023-03-16T09:56:50.581Z,16.57
2023-03-16T10:02:06.346Z,17.70
2023-03-16T10:07:41.508Z,15.57
2023-03-16T10:12:50.772Z,12.35
2023-03-16T10:18:32.518Z,9.05
2023-03-16T10:23:37.981Z,7.20
2023-03-16T10:28:43.215Z,12.18
2023-03-16T10:33:46.105Z,12.67
2023-03-16T10:38:55.537Z,12.35
2023-03-16T10:44:16.912Z,11.35
2023-03-16T10:49:27.361Z,9.87
2023-03-16T10:54:40.186Z,9.60
2023-03-16T10:59:50.083Z,9.67
2023-03-16T11:04:54.655Z,10.38
2023-03-16T11:09:59.132Z,7.18
2023-03-16T11:15:25.218Z,12.63
2023-03-16T11:20:30.982Z,7.63
2023-03-16T11:25:43.438Z,11.73
2023-03-16T11:31:20.461Z,9.70
2023-03-16T11:36:38.114Z,13.52
2023-03-16T11:41:47.269Z,12.40
2023-03-16T11:47:12.703Z,14.27
2023-03-16T11:52:39.434Z,12.53
2023-03-16T11:58:20.707Z,9.32
2023-03-16T12:03:35.344Z,5.90
2023-03-16T12:09:14.888Z,8.57
2023-03-16T12:14:24.632Z,8.90
2023-03-16T12:19:42.234Z,7.33
2023-03-16T12:24:47.290Z,8.50
2023-03-16T12:30:22.106Z,7.93
2023-03-16T12:36:00.402Z,9.57
2023-03-16T12:41:17.948Z,7.85
2023-03-16T12:46:36.737Z,8.87
2023-03-16T12:51:41.759Z,8.20
2023-03-16T12:56:47.318Z,6.13
2023-03-16T13:02:03.847Z,7.60
2023-03-16T13:07:10.161Z,9.13
2023-03-16T13:12:31.883Z,8.77
2023-03-16T13:17:35.834Z,6.30
2023-03-16T13:22:51.535Z,7.38
2023-03-16T13:27:56.508Z,8.00
2023-03-16T13:33:24.636Z,7.03
2023-03-16T13:38:28.862Z,8.50
2023-03-16T13:43:37.465Z,8.30
2023-03-16T13:48:41.913Z,8.75
2023-03-16T13:53:45.469Z,8.87
2023-03-16T13:58:51.639Z,7.97
2023-03-16T14:03:58.710Z,9.83
2023-03-16T14:09:22.942Z,7.15
2023-03-16T14:14:55.668Z,7.35
2023-03-16T14:20:01.215Z,6.87
2023-03-16T14:25:05.874Z,5.50
2023-03-16T14:30:27.431Z,5.37
2023-03-16T14:35:41.712Z,6.30
2023-03-16T14:40:57.814Z,8.02
2023-03-16T14:46:01.263Z,5.63
2023-03-16T14:51:04.722Z,5.20
2023-03-16T14:56:13.920Z,7.23
2023-03-16T15:01:20.774Z,6.55
2023-03-16T15:06:23.852Z,5.63
2023-03-16T15:11:26.824Z,5.67
2023-03-16T15:16:30.250Z,5.80
2023-03-16T15:21:32.834Z,6.17
2023-03-16T15:26:36.006Z,5.53
2023-03-16T15:31:38.746Z,8.52
2023-03-16T15:36:42.094Z,6.57
2023-03-16T15:41:47.711Z,10.48
2023-03-16T15:46:50.827Z,10.87
2023-03-16T15:51:53.597Z,8.68
2023-03-16T15:56:56.586Z,6.70
2023-03-16T16:01:59.312Z,7.93
2023-03-16T16:07:03.059Z,12.68
2023-03-16T16:12:06.361Z,6.30
2023-03-16T16:17:21.132Z,7.80
2023-03-16T16:22:25.209Z,9.13
2023-03-16T16:27:28.501Z,7.07
2023-03-16T16:32:31.844Z,8.85
2023-03-16T16:37:35.325Z,8.03
2023-03-16T16:42:38.160Z,8.45
2023-03-16T16:47:40.982Z,10.40
2023-03-16T16:52:45.603Z,12.83
2023-03-16T16:57:50.074Z,7.88
2023-03-16T17:02:55.024Z,9.87
2023-03-16T17:08:03.615Z,9.32
2023-03-16T17:13:08.109Z,8.85
2023-03-16T17:18:13.445Z,8.50
2023-03-16T17:23:34.920Z,10.48
2023-03-16T17:28:41.808Z,9.83
2023-03-16T17:33:45.162Z,22.50
2023-03-16T17:38:48.678Z,18.67
2023-03-16T17:43:57.000Z,19.60
2023-03-16T17:49:02.252Z,27.85
2023-03-16T17:54:05.567Z,18.80
2023-03-16T17:59:19.392Z,15.15
2023-03-16T18:04:25.043Z,17.05
2023-03-16T18:09:29.072Z,17.93
2023-03-16T18:14:36.296Z,15.57
2023-03-16T18:19:40.170Z,13.40
2023-03-16T18:24:43.363Z,18.85
2023-03-16T18:29:47.219Z,17.42
2023-03-16T18:34:51.015Z,14.77
2023-03-16T18:39:54.763Z,19.63
2023-03-16T18:44:57.900Z,17.53
2023-03-16T18:50:00.939Z,18.27
2023-03-16T18:55:03.683Z,16.00
2023-03-16T19:00:06.959Z,18.80
2023-03-16T19:05:20.995Z,19.00
2023-03-16T19:10:33.694Z,24.17
2023-03-16T19:15:36.442Z,22.67
2023-03-16T19:20:41.504Z,29.40
2023-03-16T19:25:45.638Z,19.87
2023-03-16T19:30:48.910Z,22.40
2023-03-16T19:35:52.772Z,22.37
2023-03-16T19:40:59.477Z,20.08
2023-03-16T19:46:02.837Z,20.65
2023-03-16T19:51:06.541Z,17.33
2023-03-16T19:56:17.656Z,20.38
2023-03-16T20:01:30.341Z,18.00
2023-03-16T20:06:34.806Z,14.35
2023-03-16T20:11:38.441Z,17.48
2023-03-16T20:16:41.274Z,18.20
2023-03-16T20:21:43.901Z,20.02
2023-03-16T20:26:48.836Z,20.07
2023-03-16T20:31:51.847Z,25.60
2023-03-16T20:36:55.697Z,20.83
2023-03-16T20:41:58.465Z,17.90
2023-03-16T20:47:01.858Z,19.73
2023-03-16T20:52:25.571Z,16.17
2023-03-16T20:57:29.905Z,21.55
2023-03-16T21:02:35.492Z,14.02
2023-03-16T21:07:38.040Z,18.13
2023-03-16T21:12:43.856Z,15.50
2023-03-16T21:17:47.545Z,19.07
2023-03-16T21:22:50.161Z,12.00
2023-03-16T21:27:55.683Z,13.98
2023-03-16T21:33:02.059Z,16.67
2023-03-16T21:38:14.131Z,14.25
2023-03-16T21:43:17.286Z,10.90
2023-03-16T21:48:26.066Z,15.90
2023-03-16T21:53:32.730Z,14.73
2023-03-16T21:58:35.564Z,13.57
2023-03-16T22:03:50.605Z,15.88
2023-03-16T22:08:54.083Z,11.30
2023-03-16T22:13:57.992Z,26.15
2023-03-16T22:19:00.571Z,20.65
2023-03-16T22:24:05.660Z,36.70
2023-03-16T22:29:28.465Z,30.65
2023-03-16T22:34:43.316Z,28.63
2023-03-16T22:39:45.884Z,26.85
2023-03-16T22:44:48.338Z,19.60
2023-03-16T22:49:51.207Z,30.17
2023-03-16T22:54:53.750Z,21.38
2023-03-16T22:59:56.799Z,20.03
2023-03-16T23:04:59.473Z,16.88
2023-03-16T23:10:02.587Z,15.32
2023-03-16T23:15:24.105Z,17.67
2023-03-16T23:20:32.090Z,19.67
2023-03-16T23:25:35.691Z,15.37
2023-03-16T23:30:38.937Z,25.50
2023-03-16T23:35:42.054Z,21.98
2023-03-16T23:40:44.809Z,20.10
2023-03-16T23:45:47.422Z,25.38
2023-03-16T23:50:54.698Z,21.23
2023-03-16T23:55:57.505Z,21.90
